Latest Weather Observations for Hindmarsh Island

IDS60901

Issued at 9:41 pm CST Friday 29 May 2015 (issued every 10 minutes, with the page automatically refreshed every 10 minutes)

About weather observations | Map of Adelaide area stations | Latest observations for Adelaide area | Other Formats
Station Details ID: 023894 Name: HINDMARSH ISLAND AWS Lat: -35.52 Lon: 138.82 Height: 11.0 m
Data from the previous 72 hours. | See also: Recent months at Hindmarsh Island
Date/Time
CST
Tmp

°C
App
Tmp
°C
Dew
Point
°C
Rel
Hum
%
Delta-T

°C
Wind Press
QNH
hPa
Press
MSL
hPa
Rain
since
9 am
mm
Dir
 
Spd
km/h
Gust
km/h
Spd
kts
Gust
kts
29/09:30pm 11.3 8.4 8.3 82 1.5 NW 13 19 7 10 1023.9 - 0.0
29/09:00pm 11.1 8.2 8.1 82 1.5 NNW 13 19 7 10 1024.0 1024.0 0.0
29/08:30pm 10.8 8.6 7.7 81 1.5 NNW 9 13 5 7 1023.9 - 0.0
29/08:00pm 11.3 9.5 7.8 79 1.7 NNW 7 9 4 5 1023.7 - 0.0
29/07:30pm 11.4 9.2 7.9 79 1.7 NNW 9 11 5 6 1023.7 - 0.0
29/07:00pm 11.2 8.6 7.7 79 1.7 NNW 11 15 6 8 1023.5 - 0.0
29/06:30pm 11.6 8.6 7.7 77 1.9 NW 13 15 7 8 1023.5 - 0.0
29/06:00pm 12.2 9.2 7.7 74 2.2 NW 13 15 7 8 1023.4 1023.4 0.0
29/05:30pm 12.6 9.6 7.7 72 2.4 NW 13 17 7 9 1023.2 - 0.0
29/05:00pm 13.5 10.5 7.7 68 2.9 WNW 13 19 7 10 1023.0 - 0.0
29/04:30pm 14.6 10.9 8.1 65 3.2 NW 17 20 9 11 1022.8 - 0.0
29/04:00pm 14.9 10.9 8.2 64 3.4 NW 19 22 10 12 1022.7 - 0.0
29/03:30pm 15.5 11.3 7.3 58 4.1 W 19 26 10 14 1022.7 - 0.0
29/03:00pm 15.8 11.3 7.0 56 4.3 W 20 28 11 15 1022.8 1022.8 0.0
29/02:30pm 16.3 11.3 6.4 52 4.8 WNW 22 32 12 17 1022.7 - 0.0
29/02:00pm 16.1 11.1 6.5 53 4.7 W 22 32 12 17 1022.7 - 0.0
29/01:30pm 15.2 10.1 6.0 54 4.4 W 22 30 12 16 1022.8 - 0.0
29/01:00pm 16.3 13.4 9.5 64 3.5 SW 15 17 8 9 1022.9 - 0.0
29/12:30pm 14.9 12.3 9.3 69 2.9 SW 13 17 7 9 1023.2 - 0.0
29/12:00pm 14.6 11.0 8.3 66 3.1 SW 17 20 9 11 1023.3 1023.3 0.0
29/11:30am 15.3 12.3 7.6 60 3.8 SW 13 17 7 9 1023.6 - 0.0
29/11:00am 15.0 11.5 7.1 59 3.9 W 15 19 8 10 1024.0 - 0.0
29/10:30am 14.5 10.9 6.6 59 3.8 W 15 22 8 12 1024.1 - 0.0
29/10:00am 14.2 10.5 6.3 59 3.8 W 15 20 8 11 1024.0 - 0.0
29/09:30am 13.6 10.5 7.4 66 3.0 W 13 19 7 10 1023.7 - 0.0
29/09:00am 12.5 9.5 7.6 72 2.4 WNW 13 17 7 9 1023.6 - 1.8
29/08:30am 11.8 8.8 7.5 75 2.1 W 13 17 7 9 1023.5 - 1.8
29/08:00am 11.1 7.6 7.2 77 1.9 W 15 20 8 11 1023.5 - 1.8
29/07:30am 9.7 6.7 6.1 78 1.7 WNW 11 13 6 7 1023.2 - 1.8
29/07:00am 9.8 6.1 6.3 79 1.6 WNW 15 17 8 9 1022.9 - 1.8
29/06:30am 9.4 5.7 6.1 80 1.5 WNW 15 17 8 9 1022.7 - 1.8
29/06:00am 9.6 6.3 6.3 80 1.5 WNW 13 15 7 8 1022.3 1022.3 1.8
29/05:30am 10.0 6.7 6.5 79 1.6 WNW 13 13 7 7 1022.1 - 1.8
29/05:00am 10.5 7.2 6.6 77 1.8 WNW 13 17 7 9 1022.1 - 1.8
29/04:30am 10.3 7.0 6.6 78 1.7 NW 13 15 7 8 1021.9 - 1.8
29/04:00am 10.2 6.5 6.4 77 1.8 NW 15 19 8 10 1021.5 - 1.8
29/03:30am 9.7 6.7 5.9 77 1.7 WNW 11 13 6 7 1021.3 - 1.8
29/03:00am 9.9 6.5 5.9 76 1.8 NW 13 15 7 8 1021.3 1021.3 1.8
29/02:30am 10.0 7.4 6.2 77 1.8 NW 9 11 5 6 1021.2 - 1.8
29/02:00am 9.9 7.4 6.4 79 1.6 NW 9 11 5 6 1021.3 - 1.8
29/01:30am 10.1 7.2 6.4 78 1.7 NW 11 13 6 7 1021.3 - 1.8
29/01:00am 10.7 7.9 6.8 77 1.8 NW 11 13 6 7 1021.1 - 1.6
29/12:30am 11.9 9.3 7.6 75 2.1 WNW 11 17 6 9 1021.0 - 1.6
29/12:00am 12.6 8.8 7.7 72 2.4 W 17 22 9 12 1021.0 1021.0 1.6
 
Date/Time
CST
Tmp

°C
App
Tmp
°C
Dew
Point
°C
Rel
Hum
%
Delta-T

°C
Wind Press
QNH
hPa
Press
MSL
hPa
Rain
since
9 am
mm
Dir
 
Spd
km/h
Gust
km/h
Spd
kts
Gust
kts
28/11:30pm 13.0 9.0 8.1 72 2.4 W 19 26 10 14 1021.0 - 1.6
28/11:00pm 13.0 8.9 8.5 74 2.2 W 20 28 11 15 1021.0 - 1.6
28/10:30pm 12.9 9.0 8.8 76 2.1 W 19 24 10 13 1021.0 - 1.6
28/10:00pm 13.0 9.5 8.7 75 2.2 W 17 24 9 13 1020.5 - 1.6
28/09:30pm 13.2 9.8 9.1 76 2.1 W 17 22 9 12 1020.3 - 1.6
28/09:00pm 13.3 10.3 9.4 77 2.0 W 15 20 8 11 1020.1 1020.1 1.6
28/08:30pm 13.2 9.9 9.6 79 1.8 W 17 20 9 11 1020.1 - 1.6
28/08:00pm 13.4 10.2 10.0 80 1.8 W 17 20 9 11 1019.8 - 1.6
28/07:30pm 13.4 10.4 10.8 84 1.4 W 17 24 9 13 1019.4 - 1.6
28/07:00pm 13.3 9.4 10.8 85 1.3 WSW 22 30 12 16 1019.2 - 1.6
28/06:30pm 13.7 11.4 11.6 87 1.1 W 15 24 8 13 1019.0 - 1.6
28/06:00pm 13.5 11.6 11.7 89 1.0 W 13 20 7 11 1018.6 1018.6 1.6
28/05:30pm 13.3 11.7 11.5 89 1.0 W 11 15 6 8 1018.3 - 1.4
28/05:00pm 13.3 9.5 11.2 87 1.1 WSW 22 28 12 15 1018.0 - 0.8
28/04:30pm 13.8 8.8 11.0 83 1.5 SW 28 37 15 20 1017.7 - 0.4
28/04:00pm 15.4 11.6 11.0 75 2.3 W 22 30 12 16 1017.3 - 0.4
28/03:30pm 15.0 10.8 11.0 77 2.1 WNW 24 35 13 19 1017.0 - 0.4
28/03:00pm 14.4 8.7 11.2 81 1.7 WNW 32 52 17 28 1016.9 1016.9 0.4
28/02:48pm 16.5 11.5 10.8 69 3.0 WNW 28 50 15 27 1016.9 - 0.0
28/02:30pm 17.0 12.1 9.9 63 3.7 WNW 26 43 14 23 1016.5 - 0.0
28/02:00pm 17.3 11.7 10.2 63 3.8 WNW 30 41 16 22 1016.6 - 0.0
28/01:30pm 16.6 12.1 11.3 71 2.9 WNW 26 37 14 20 1016.6 - 0.0
28/01:00pm 16.7 11.8 11.4 71 2.9 WNW 28 43 15 23 1016.6 - 0.0
28/12:30pm 15.6 11.6 10.6 72 2.6 WNW 22 32 12 17 1016.9 - 0.0
28/12:00pm 16.4 11.3 10.5 68 3.1 NW 28 39 15 21 1017.3 1017.3 0.0
28/11:30am 16.8 12.7 11.5 71 2.9 NW 24 35 13 19 1017.7 - 0.0
28/11:00am 16.6 12.3 10.9 69 3.1 NW 24 32 13 17 1017.9 - 0.0
28/10:30am 16.7 12.5 11.2 70 3.0 NW 24 33 13 18 1018.0 - 0.0
28/10:00am 16.3 12.5 11.2 72 2.7 NNW 22 30 12 16 1018.0 - 0.0
28/09:30am 15.6 12.2 11.2 75 2.4 NNW 20 28 11 15 1017.9 - 0.0
28/09:00am 15.2 12.0 11.2 77 2.1 NNW 19 24 10 13 1017.9 1017.9 0.0
28/08:30am 14.3 11.1 11.1 81 1.7 NNW 19 22 10 12 1017.9 - 0.0
28/08:00am 13.9 10.3 10.5 80 1.8 NNW 20 26 11 14 1017.5 - 0.0
28/07:30am 13.6 10.2 10.4 81 1.7 NNW 19 24 10 13 1017.7 - 0.0
28/07:00am 13.3 9.8 10.3 82 1.6 NNW 19 24 10 13 1017.6 - 0.0
28/06:30am 13.1 9.3 9.9 81 1.6 NNW 20 24 11 13 1017.0 - 0.0
28/06:00am 13.5 9.7 9.7 78 1.9 NNW 20 26 11 14 1016.8 1016.8 0.0
28/05:30am 13.5 9.8 9.4 76 2.1 NNW 19 24 10 13 1016.6 - 0.0
28/05:00am 13.9 10.2 9.3 74 2.3 NNW 19 22 10 12 1016.5 - 0.0
28/04:30am 13.3 10.2 9.0 75 2.2 NNW 15 19 8 10 1016.8 - 0.0
28/04:00am 13.2 10.2 9.1 76 2.1 NNW 15 17 8 9 1016.8 - 0.0
28/03:30am 13.5 10.9 9.4 76 2.1 NW 13 17 7 9 1016.9 - 0.0
28/03:00am 13.9 11.3 9.3 74 2.3 NW 13 17 7 9 1016.9 1016.9 0.0
28/02:30am 13.5 11.4 9.7 78 1.9 NW 11 15 6 8 1016.9 - 0.0
28/02:00am 13.9 11.8 9.7 76 2.2 NW 11 15 6 8 1017.1 - 0.0
28/01:30am 14.2 11.0 9.8 75 2.3 NNW 17 24 9 13 1017.2 - 0.0
28/01:00am 15.0 11.3 10.0 72 2.6 N 20 28 11 15 1016.9 - 0.0
28/12:30am 14.1 11.3 10.1 77 2.1 NNW 15 20 8 11 1017.0 - 0.0
28/12:00am 14.2 11.9 10.4 78 2.0 NW 13 17 7 9 1017.5 1017.5 0.0
 
Date/Time
CST
Tmp

°C
App
Tmp
°C
Dew
Point
°C
Rel
Hum
%
Delta-T

°C
Wind Press
QNH
hPa
Press
MSL
hPa
Rain
since
9 am
mm
Dir
 
Spd
km/h
Gust
km/h
Spd
kts
Gust
kts
27/11:30pm 14.2 11.8 10.2 77 2.1 NW 13 17 7 9 1017.8 - 0.0
27/11:00pm 14.8 12.9 10.4 75 2.3 NNW 11 15 6 8 1018.0 - 0.0
27/10:30pm 15.1 12.8 10.5 74 2.4 NNW 13 19 7 10 1018.1 - 0.0
27/10:00pm 15.2 12.6 10.6 74 2.4 NNW 15 19 8 10 1018.3 - 0.0
27/09:30pm 15.6 12.6 10.8 73 2.5 NNW 17 20 9 11 1018.3 - 0.0
27/09:00pm 15.5 12.6 10.9 74 2.4 NNW 17 22 9 12 1018.3 1018.3 0.0
27/08:30pm 14.5 11.9 10.7 78 2.0 N 15 19 8 10 1018.4 - 0.0
27/08:00pm 14.0 12.1 10.4 79 1.9 N 11 15 6 8 1018.3 - 0.0
27/07:30pm 14.1 12.1 10.1 77 2.1 N 11 13 6 7 1018.3 - 0.0
27/07:00pm 14.9 13.5 10.9 77 2.1 N 9 13 5 7 1018.4 - 0.0
27/06:30pm 15.3 13.2 11.1 76 2.2 N 13 15 7 8 1018.1 - 0.0
27/06:00pm 16.2 13.0 11.2 72 2.7 NNW 19 24 10 13 1018.0 1018.0 0.0
27/05:30pm 16.5 14.5 11.4 72 2.8 NNW 13 20 7 11 1018.0 - 0.0
27/05:00pm 16.6 15.4 11.5 72 2.8 NNW 9 17 5 9 1017.8 - 0.0
27/04:30pm 17.7 16.5 11.7 68 3.3 NNW 9 13 5 7 1017.8 - 0.0
27/04:00pm 18.0 15.7 11.8 67 3.4 NNW 15 20 8 11 1017.8 - 0.0
27/03:30pm 18.8 16.9 11.9 64 3.8 NNW 13 20 7 11 1017.9 - 0.0
27/03:00pm 18.9 15.6 11.5 62 4.1 NW 20 32 11 17 1018.0 1018.0 0.0
27/02:30pm 19.2 15.6 10.7 58 4.6 NW 20 30 11 16 1018.0 - 0.0
27/02:00pm 19.2 15.6 10.7 58 4.6 NW 20 28 11 15 1017.9 - 0.0
27/01:30pm 19.2 15.7 10.2 56 4.8 NW 19 24 10 13 1018.2 - 0.0
27/01:00pm 19.3 16.1 11.3 60 4.4 NW 19 28 10 15 1018.5 - 0.0
27/12:30pm 18.4 13.6 10.3 59 4.3 NW 26 35 14 19 1018.7 - 0.0
27/12:00pm 17.7 11.8 11.3 66 3.5 NW 33 44 18 24 1019.0 1019.0 0.0
27/11:30am 18.1 12.7 11.0 63 3.8 NW 30 39 16 21 1019.2 - 0.0
27/11:00am 17.7 11.7 10.8 64 3.7 NW 33 48 18 26 1019.0 - 0.0
27/10:30am 17.5 11.7 11.5 68 3.3 NW 33 46 18 25 1019.1 - 0.0
27/10:06am 17.1 12.2 11.4 69 3.1 NW 28 46 15 25 1019.2 - 0.0
27/10:00am 17.1 13.4 11.4 69 3.1 NW 22 33 12 18 1019.4 - 0.0
27/09:30am 16.4 11.9 11.3 72 2.7 NW 26 35 14 19 1019.5 - 0.0
27/09:00am 15.8 10.8 11.0 73 2.6 NW 28 41 15 22 1019.4 1019.4 0.2
27/08:30am 15.1 11.5 10.5 74 2.4 NW 20 30 11 16 1019.4 - 0.2
27/08:00am 14.4 10.8 10.4 77 2.1 NW 20 30 11 16 1019.2 - 0.2
27/07:30am 13.8 10.1 10.2 79 1.9 NW 20 26 11 14 1019.1 - 0.2
27/07:00am 13.5 10.3 10.1 80 1.8 NNW 17 24 9 13 1018.8 - 0.2
27/06:30am 14.0 9.5 10.2 78 2.0 NNW 24 30 13 16 1018.7 - 0.2
27/06:00am 13.8 10.1 10.0 78 2.0 NNW 20 24 11 13 1018.8 1018.8 0.2
27/05:30am 13.6 9.7 9.6 77 2.0 NNW 20 24 11 13 1018.8 - 0.2
27/05:00am 13.8 10.5 9.5 75 2.2 NNW 17 20 9 11 1018.9 - 0.2
27/04:30am 13.6 10.5 8.9 73 2.4 NW 15 17 8 9 1019.1 - 0.2
27/04:00am 13.4 11.4 8.7 73 2.4 NW 9 11 5 6 1019.0 - 0.2
27/03:30am 13.0 10.3 8.9 76 2.1 NNW 13 13 7 7 1018.9 - 0.2
27/03:00am 13.4 11.1 9.1 75 2.2 N 11 13 6 7 1019.2 1019.2 0.2
27/02:30am 13.2 10.9 9.1 76 2.1 NNW 11 13 6 7 1019.4 - 0.2
27/02:00am 13.7 11.1 9.4 75 2.2 NNW 13 17 7 9 1019.6 - 0.2
27/01:30am 13.1 10.9 9.5 79 1.8 NNW 11 20 6 11 1019.6 - 0.2
27/01:00am 12.7 11.4 9.2 79 1.8 ENE 6 9 3 5 1019.7 - 0.2
27/12:30am 14.1 13.0 9.9 76 2.2 N 6 9 3 5 1019.9 - 0.2
27/12:00am 14.2 11.0 9.8 75 2.3 N 17 22 9 12 1019.7 1019.7 0.2
 
Date/Time
CST
Tmp

°C
App
Tmp
°C
Dew
Point
°C
Rel
Hum
%
Delta-T

°C
Wind Press
QNH
hPa
Press
MSL
hPa
Rain
since
9 am
mm
Dir
 
Spd
km/h
Gust
km/h
Spd
kts
Gust
kts
26/11:30pm 13.9 11.5 10.1 78 2.0 N 13 15 7 8 1020.3 - 0.2
26/11:00pm 13.8 11.8 10.0 78 2.0 N 11 13 6 7 1020.5 - 0.2
26/10:30pm 13.5 11.4 9.9 79 1.9 N 11 13 6 7 1020.8 - 0.2
26/10:00pm 14.3 10.8 10.1 76 2.2 N 19 22 10 12 1021.0 - 0.0

Latest Capital City Observations: Canberra | Sydney | Melbourne | Brisbane | Adelaide | Perth | Hobart | Darwin

Other Formats:

Comma delimited format used in spreadsheet applications
http://www.bom.gov.au/fwo/IDS60901/IDS60901.94677.axf

JavaScript Object Notation format (JSON) in row-major order
http://www.bom.gov.au/fwo/IDS60901/IDS60901.94677.json